Time;durP1;ratioP1;P1;durP2;ratioP2;P2;SDS_P1;SDS_P2;PMS_P1;PMS_P2;Temp;Humidity;BMP_temperature;BMP_pressure;BME280_temperature;BME280_humidity;BME280_pressure;Samples;Min_cycle;Max_cycle;Signal;HPM_P1;HPM_P2
2020/12/20 00:00:50;;;;;;;68.60;34.77;;;;;;;3.48;100.00;96752.84;5070004;28;20192;-69
2020/12/20 00:03:17;;;;;;;74.00;42.17;;;;;;;3.51;100.00;96756.75;5069908;28;20261;-70
2020/12/20 00:05:43;;;;;;;60.20;33.80;;;;;;;3.37;100.00;96754.34;5070307;28;20279;-70
2020/12/20 00:08:10;;;;;;;62.17;31.70;;;;;;;3.31;100.00;96762.91;5070048;28;20194;-70
2020/12/20 00:10:37;;;;;;;65.27;36.00;;;;;;;3.37;100.00;96756.94;5069879;28;20271;-70
2020/12/20 00:13:05;;;;;;;81.07;41.20;;;;;;;3.36;100.00;96757.91;5069841;28;20192;-68
2020/12/20 00:15:31;;;;;;;85.47;45.97;;;;;;;3.39;100.00;96752.34;5069956;28;20753;-70
2020/12/20 00:17:58;;;;;;;68.10;35.53;;;;;;;3.46;100.00;96762.53;5070473;28;20192;-69
2020/12/20 00:20:25;;;;;;;63.90;32.70;;;;;;;3.51;100.00;96754.19;5073842;28;20667;-70
2020/12/20 00:22:52;;;;;;;61.63;32.97;;;;;;;3.49;100.00;96767.25;5073913;28;20641;-71
2020/12/20 00:25:19;;;;;;;62.20;31.37;;;;;;;3.47;100.00;96764.91;5073832;28;20277;-69
2020/12/20 00:27:45;;;;;;;60.03;33.93;;;;;;;3.45;100.00;96764.31;5073889;28;20192;-70
2020/12/20 00:30:13;;;;;;;61.50;35.00;;;;;;;3.35;100.00;96764.06;5073721;28;20204;-68
2020/12/20 00:32:40;;;;;;;53.57;29.33;;;;;;;3.33;100.00;96760.16;5073822;28;20307;-67
2020/12/20 00:35:07;;;;;;;67.17;37.27;;;;;;;3.33;100.00;96755.00;5073168;28;20228;-69
2020/12/20 00:37:34;;;;;;;52.73;29.63;;;;;;;3.25;100.00;96763.78;5073892;28;20195;-69
2020/12/20 00:40:01;;;;;;;60.27;35.43;;;;;;;3.24;100.00;96762.19;5073794;28;20204;-69
2020/12/20 00:42:28;;;;;;;56.90;34.57;;;;;;;3.19;100.00;96762.06;5073617;28;20231;-69
2020/12/20 00:44:55;;;;;;;48.77;30.17;;;;;;;3.14;100.00;96761.91;5073616;28;20666;-69
2020/12/20 00:47:22;;;;;;;50.70;29.90;;;;;;;3.23;100.00;96765.78;5073398;28;20758;-68
2020/12/20 00:49:49;;;;;;;48.93;28.23;;;;;;;3.25;100.00;96768.13;5073456;28;20193;-68
2020/12/20 00:52:16;;;;;;;48.63;25.47;;;;;;;3.26;100.00;96765.34;5073237;28;20203;-69
2020/12/20 00:54:43;;;;;;;41.77;23.60;;;;;;;3.29;100.00;96761.56;5073095;28;20724;-69
2020/12/20 00:57:10;;;;;;;38.87;20.27;;;;;;;3.31;100.00;96762.91;5073504;28;20196;-67
2020/12/20 00:59:37;;;;;;;45.77;23.17;;;;;;;3.32;100.00;96763.72;5073251;28;20190;-69
2020/12/20 01:02:04;;;;;;;39.67;21.10;;;;;;;3.34;100.00;96767.63;5073283;28;20732;-68
2020/12/20 01:04:31;;;;;;;44.37;22.17;;;;;;;3.36;100.00;96770.75;5073382;28;20279;-70
2020/12/20 01:06:59;;;;;;;45.60;23.30;;;;;;;3.33;100.00;96760.16;5073092;28;20202;-70
2020/12/20 01:09:26;;;;;;;49.40;24.77;;;;;;;3.37;100.00;96756.13;5072971;28;20663;-69
2020/12/20 01:11:54;;;;;;;57.50;29.23;;;;;;;3.36;100.00;96750.22;5072918;28;20206;-68
2020/12/20 01:14:21;;;;;;;59.03;29.20;;;;;;;3.34;100.00;96744.50;5073074;28;20201;-70
2020/12/20 01:16:48;;;;;;;44.47;23.40;;;;;;;3.36;100.00;96745.06;5072883;28;20239;-68
2020/12/20 01:19:14;;;;;;;55.60;24.13;;;;;;;3.43;100.00;96747.56;5072813;28;20671;-70
2020/12/20 01:21:42;;;;;;;43.93;23.90;;;;;;;3.33;100.00;96742.94;5072805;28;20203;-70
2020/12/20 01:24:09;;;;;;;46.43;23.30;;;;;;;3.28;100.00;96742.81;5072709;28;20663;-69
2020/12/20 01:26:39;;;;;;;39.97;20.07;;;;;;;3.31;100.00;96742.38;5072567;28;20204;-69
2020/12/20 01:29:06;;;;;;;41.63;19.83;;;;;;;3.28;100.00;96744.59;5072465;28;20189;-70
2020/12/20 01:31:32;;;;;;;41.33;19.30;;;;;;;3.29;100.00;96738.44;5072597;28;20257;-68
2020/12/20 01:34:00;;;;;;;41.37;19.30;;;;;;;3.34;100.00;96736.78;5072344;28;20223;-70
2020/12/20 01:36:29;;;;;;;46.57;20.80;;;;;;;3.27;100.00;96741.25;5072592;28;20269;-69
2020/12/20 01:38:57;;;;;;;47.07;22.13;;;;;;;3.25;100.00;96738.09;5072658;28;20200;-69
2020/12/20 01:41:24;;;;;;;45.50;20.23;;;;;;;3.26;100.00;96738.88;5072156;28;20205;-70
2020/12/20 01:43:52;;;;;;;43.67;20.97;;;;;;;3.26;100.00;96739.66;5072540;28;20589;-68
2020/12/20 01:46:20;;;;;;;47.17;20.73;;;;;;;3.26;100.00;96739.66;5072263;28;20192;-68
2020/12/20 01:48:48;;;;;;;47.70;21.57;;;;;;;3.25;100.00;96740.66;5072280;28;20195;-66
2020/12/20 01:51:15;;;;;;;47.20;21.97;;;;;;;3.27;100.00;96740.44;5072308;28;20192;-69
2020/12/20 01:53:42;;;;;;;48.63;21.73;;;;;;;3.22;100.00;96735.97;5072217;28;20202;-69
2020/12/20 01:56:10;;;;;;;50.60;22.13;;;;;;;3.20;100.00;96734.59;5072117;28;20276;-69
2020/12/20 01:58:40;;;;;;;42.87;20.20;;;;;;;3.25;100.00;96743.22;5072061;28;20218;-69
2020/12/20 02:01:08;;;;;;;42.37;22.53;;;;;;;3.22;100.00;96733.41;5071990;28;20200;-70
2020/12/20 02:03:35;;;;;;;44.53;22.33;;;;;;;3.25;100.00;96737.31;5072074;28;20246;-69
2020/12/20 02:06:04;;;;;;;54.07;25.07;;;;;;;3.25;100.00;96735.53;5071993;28;20196;-69
2020/12/20 02:08:30;;;;;;;47.63;22.37;;;;;;;3.19;100.00;96733.06;5072135;28;20204;-69
2020/12/20 02:11:05;;;;;;;53.40;21.57;;;;;;;3.13;100.00;96734.69;5071866;28;20735;-68
2020/12/20 02:13:33;;;;;;;40.43;20.87;;;;;;;3.22;100.00;96727.47;5071870;28;20659;-70
2020/12/20 02:16:00;;;;;;;39.90;18.77;;;;;;;3.15;100.00;96732.69;5071662;28;20315;-68
2020/12/20 02:18:27;;;;;;;42.30;20.67;;;;;;;3.12;100.00;96727.97;5071768;28;20382;-70
2020/12/20 02:20:54;;;;;;;42.07;19.50;;;;;;;3.08;100.00;96731.97;5071753;28;20235;-69
2020/12/20 02:23:22;;;;;;;44.93;21.93;;;;;;;3.07;100.00;96735.53;5071553;28;20328;-70
2020/12/20 02:25:51;;;;;;;44.90;19.83;;;;;;;3.16;100.00;96743.75;5071641;28;20687;-69
2020/12/20 02:28:19;;;;;;;42.83;20.30;;;;;;;3.16;100.00;96741.16;5071443;28;20206;-69
2020/12/20 02:30:46;;;;;;;48.10;22.33;;;;;;;3.10;100.00;96744.59;5071837;28;20193;-68
2020/12/20 02:33:13;;;;;;;47.97;22.70;;;;;;;3.16;100.00;96739.38;5071355;28;20276;-69
2020/12/20 02:35:44;;;;;;;44.37;22.10;;;;;;;3.11;100.00;96734.13;5071319;28;20316;-70
2020/12/20 02:38:10;;;;;;;50.37;23.43;;;;;;;3.03;100.00;96736.97;5071454;28;20201;-69
2020/12/20 02:40:39;;;;;;;51.27;22.87;;;;;;;3.10;100.00;96739.47;5070587;28;20196;-70
2020/12/20 02:43:06;;;;;;;50.77;24.03;;;;;;;3.18;100.00;96734.84;5071512;28;20228;-70
2020/12/20 02:45:33;;;;;;;53.00;26.00;;;;;;;3.19;100.00;96730.47;5071387;28;20192;-70
2020/12/20 02:48:00;;;;;;;60.20;24.20;;;;;;;3.21;100.00;96726.69;5071131;28;20192;-70
2020/12/20 02:50:27;;;;;;;46.07;23.30;;;;;;;3.04;100.00;96731.59;5071124;28;20202;-69
2020/12/20 02:52:54;;;;;;;45.87;21.87;;;;;;;3.13;100.00;96727.00;5071001;28;20659;-68
2020/12/20 02:55:20;;;;;;;45.53;22.67;;;;;;;3.07;100.00;96720.13;5071201;28;20232;-70
2020/12/20 02:57:52;;;;;;;48.20;22.77;;;;;;;3.04;100.00;96730.81;5071305;28;20768;-70
2020/12/20 03:00:19;;;;;;;49.00;22.90;;;;;;;2.97;100.00;96733.47;5071014;28;20231;-69
2020/12/20 03:02:46;;;;;;;49.87;24.77;;;;;;;2.99;100.00;96718.63;5071176;28;20201;-68
2020/12/20 03:05:13;;;;;;;69.70;30.23;;;;;;;3.03;100.00;96731.84;5070852;28;20617;-70
2020/12/20 03:07:40;;;;;;;64.20;28.73;;;;;;;2.85;100.00;96734.41;5070977;28;20279;-69
2020/12/20 03:10:07;;;;;;;58.40;27.60;;;;;;;2.81;100.00;96734.03;5071229;28;20279;-69
2020/12/20 03:12:34;;;;;;;61.50;26.33;;;;;;;2.80;100.00;96729.91;5070627;28;20354;-69
2020/12/20 03:15:02;;;;;;;55.97;24.87;;;;;;;2.78;100.00;96726.78;5070587;28;20196;-68
2020/12/20 03:17:29;;;;;;;49.50;23.13;;;;;;;2.85;100.00;96730.03;5070477;28;20206;-69
2020/12/20 03:19:56;;;;;;;56.80;25.90;;;;;;;2.82;100.00;96724.56;5070670;28;20679;-69
2020/12/20 03:22:23;;;;;;;56.93;25.60;;;;;;;2.89;100.00;96720.16;5070263;28;20305;-68
2020/12/20 03:24:49;;;;;;;52.07;24.50;;;;;;;2.89;100.00;96722.72;5070349;28;20250;-69
2020/12/20 03:27:16;;;;;;;53.13;28.30;;;;;;;2.95;100.00;96716.72;5070643;28;20272;-68
2020/12/20 03:29:43;;;;;;;61.00;27.13;;;;;;;2.97;100.00;96725.78;5070496;28;20203;-69
2020/12/20 03:32:10;;;;;;;59.30;27.00;;;;;;;3.01;100.00;96724.34;5070408;28;20249;-70
2020/12/20 03:34:37;;;;;;;62.73;26.03;;;;;;;3.03;100.00;96729.28;5070458;28;20601;-68
2020/12/20 03:37:04;;;;;;;54.77;26.23;;;;;;;3.02;100.00;96725.13;5070134;28;20232;-69
2020/12/20 03:39:31;;;;;;;52.70;25.20;;;;;;;3.03;100.00;96724.16;5070431;28;20204;-69
2020/12/20 03:41:58;;;;;;;52.20;22.33;;;;;;;3.11;100.00;96726.41;5070077;28;20237;-70
2020/12/20 03:44:25;;;;;;;46.43;20.97;;;;;;;3.08;100.00;96728.63;5070414;28;20305;-69
2020/12/20 03:46:51;;;;;;;51.57;22.67;;;;;;;3.07;100.00;96730.41;5070245;28;20246;-70
2020/12/20 03:49:19;;;;;;;49.87;21.93;;;;;;;3.07;100.00;96724.50;5070155;28;20201;-69
2020/12/20 03:51:46;;;;;;;51.00;21.53;;;;;;;3.06;100.00;96723.69;5069899;28;20192;-69
2020/12/20 03:54:13;;;;;;;52.50;21.83;;;;;;;3.13;100.00;96731.34;5069382;28;20196;-69
2020/12/20 03:56:40;;;;;;;47.10;21.77;;;;;;;3.19;100.00;96728.66;5070148;28;20243;-70
2020/12/20 03:59:07;;;;;;;47.07;22.57;;;;;;;3.17;100.00;96725.56;5070044;28;20200;-68
2020/12/20 04:01:33;;;;;;;46.83;20.17;;;;;;;3.12;100.00;96730.56;5070094;28;20203;-68
2020/12/20 04:04:00;;;;;;;52.33;20.63;;;;;;;3.19;100.00;96726.09;5070053;28;20220;-69
2020/12/20 04:06:28;;;;;;;56.30;24.67;;;;;;;3.28;100.00;96724.03;5069959;28;20203;-70
2020/12/20 04:08:55;;;;;;;53.40;24.90;;;;;;;3.23;100.00;96729.84;5070210;28;20206;-70
2020/12/20 04:11:22;;;;;;;59.53;27.63;;;;;;;3.17;100.00;96728.13;5069732;28;20195;-69
2020/12/20 04:13:48;;;;;;;59.27;25.23;;;;;;;3.15;100.00;96732.69;5069720;28;20206;-69
2020/12/20 04:16:15;;;;;;;55.87;25.10;;;;;;;3.11;100.00;96725.63;5069870;28;20634;-69
2020/12/20 04:18:42;;;;;;;60.30;23.27;;;;;;;3.11;100.00;96726.41;5069874;28;20207;-69
2020/12/20 04:21:09;;;;;;;60.33;25.33;;;;;;;3.16;100.00;96738.59;5070144;28;20185;-69
2020/12/20 04:23:36;;;;;;;54.00;23.40;;;;;;;3.10;100.00;96727.41;5069687;28;20717;-70
2020/12/20 04:26:05;;;;;;;58.57;23.60;;;;;;;3.17;100.00;96735.03;5070002;28;20206;-70
2020/12/20 04:28:32;;;;;;;56.07;23.13;;;;;;;3.09;100.00;96737.91;5069732;28;20295;-69
2020/12/20 04:30:59;;;;;;;51.37;22.20;;;;;;;3.07;100.00;96734.75;5069631;28;20191;-69
2020/12/20 04:33:26;;;;;;;48.57;22.07;;;;;;;3.19;100.00;96728.66;5069533;28;20188;-69
2020/12/20 04:35:53;;;;;;;50.77;23.57;;;;;;;3.22;100.00;96730.03;5069794;28;20224;-69
2020/12/20 04:38:19;;;;;;;47.30;22.87;;;;;;;3.22;100.00;96728.25;5069929;28;20613;-68
2020/12/20 04:40:47;;;;;;;53.93;24.57;;;;;;;3.22;100.00;96730.81;5069550;28;20203;-69
2020/12/20 04:43:14;;;;;;;45.97;23.03;;;;;;;3.21;100.00;96728.47;5069341;28;20220;-70
2020/12/20 04:45:43;;;;;;;55.80;24.30;;;;;;;3.17;100.00;96722.97;5069856;28;20202;-67
2020/12/20 04:48:12;;;;;;;53.43;23.23;;;;;;;3.16;100.00;96723.97;5069670;28;20666;-69
2020/12/20 04:50:40;;;;;;;51.77;22.93;;;;;;;3.11;100.00;96728.97;5069591;28;20683;-70
2020/12/20 04:53:07;;;;;;;52.67;22.53;;;;;;;3.11;100.00;96731.53;5069556;28;20714;-70
2020/12/20 04:55:37;;;;;;;54.10;22.30;;;;;;;3.12;100.00;96733.13;5069511;28;20227;-70
2020/12/20 04:58:06;;;;;;;44.00;20.00;;;;;;;3.13;100.00;96734.69;5069994;28;20193;-70
2020/12/20 05:00:33;;;;;;;49.60;20.23;;;;;;;3.13;100.00;96731.34;5069406;28;20588;-69
2020/12/20 05:03:00;;;;;;;42.27;20.03;;;;;;;3.13;100.00;96732.13;5069335;28;20201;-69
2020/12/20 05:05:26;;;;;;;49.13;23.13;;;;;;;3.19;100.00;96738.94;5072314;28;20574;-68
2020/12/20 05:07:54;;;;;;;45.00;21.33;;;;;;;3.17;100.00;96729.91;5072902;28;20204;-69
2020/12/20 05:10:38;;;;;;;49.47;21.97;;;;;;;3.10;100.00;96727.41;5073011;28;20198;-70
2020/12/20 05:13:06;;;;;;;54.83;22.87;;;;;;;3.13;100.00;96739.03;5073094;28;20691;-70
2020/12/20 05:15:34;;;;;;;52.43;25.67;;;;;;;3.13;100.00;96733.91;5072877;28;20236;-70
2020/12/20 05:18:04;;;;;;;66.30;30.27;;;;;;;3.15;100.00;96735.25;5072941;28;20199;-69
2020/12/20 05:20:39;;;;;;;72.07;32.57;;;;;;;3.07;100.00;96737.31;5072814;28;20191;-66
2020/12/20 05:23:06;;;;;;;55.73;25.27;;;;;;;3.12;100.00;96737.47;5072576;28;20203;-69
2020/12/20 05:25:34;;;;;;;56.13;23.30;;;;;;;3.19;100.00;96738.94;5072847;28;20199;-68
2020/12/20 05:28:14;;;;;;;53.53;23.27;;;;;;;3.21;100.00;96742.09;5073084;28;20198;-70
2020/12/20 05:30:42;;;;;;;56.60;23.30;;;;;;;3.28;100.00;96747.16;5072918;28;20200;-70
2020/12/20 05:33:09;;;;;;;51.33;22.10;;;;;;;3.26;100.00;96742.22;5072630;28;20220;-68
2020/12/20 05:35:36;;;;;;;56.73;24.60;;;;;;;3.28;100.00;96747.16;5072340;28;20223;-69
2020/12/20 05:38:04;;;;;;;68.43;25.40;;;;;;;3.26;100.00;96755.06;5072553;28;20199;-69
2020/12/20 05:40:33;;;;;;;63.47;27.33;;;;;;;3.27;100.00;96755.88;5072684;28;20195;-67
2020/12/20 05:43:02;;;;;;;77.40;30.90;;;;;;;3.26;100.00;96762.00;5072247;28;20236;-69
2020/12/20 05:45:31;;;;;;;67.50;29.17;;;;;;;3.30;100.00;96758.00;5072493;28;20197;-70
2020/12/20 05:47:59;;;;;;;60.60;28.67;;;;;;;3.33;100.00;96755.78;5072420;28;20219;-71
2020/12/20 05:50:29;;;;;;;63.53;27.80;;;;;;;3.35;100.00;96758.91;5072155;28;20850;-70
2020/12/20 05:53:04;;;;;;;70.33;30.00;;;;;;;3.34;100.00;96757.34;5072484;28;20196;-70
2020/12/20 05:55:41;;;;;;;71.10;30.13;;;;;;;3.37;100.00;96762.06;5072340;28;20626;-69
2020/12/20 05:58:14;;;;;;;72.70;29.50;;;;;;;3.40;100.00;96765.97;5072154;28;20649;-70
2020/12/20 06:00:43;;;;;;;64.60;30.07;;;;;;;3.38;100.00;96768.78;5072206;28;20281;-70
2020/12/20 06:03:11;;;;;;;68.13;29.20;;;;;;;3.37;100.00;96767.19;5072266;28;20201;-70
2020/12/20 06:05:43;;;;;;;65.70;27.33;;;;;;;3.36;100.00;96770.75;5072108;28;20199;-70
2020/12/20 06:08:12;;;;;;;71.80;28.70;;;;;;;3.26;100.00;96775.63;5072354;28;20272;-69
2020/12/20 06:10:41;;;;;;;64.87;27.23;;;;;;;3.26;100.00;96774.84;5072203;28;20196;-69
2020/12/20 06:13:10;;;;;;;69.67;28.43;;;;;;;3.16;100.00;96783.03;5071905;28;20571;-69
2020/12/20 06:15:40;;;;;;;71.67;25.67;;;;;;;3.23;100.00;96785.56;5070719;28;20223;-70
2020/12/20 06:18:16;;;;;;;59.00;24.33;;;;;;;3.16;100.00;96788.19;5072219;28;20200;-69
2020/12/20 06:20:54;;;;;;;62.87;26.43;;;;;;;3.18;100.00;96793.13;5071717;28;20293;-70
2020/12/20 06:23:25;;;;;;;102.20;43.07;;;;;;;3.13;100.00;96791.19;5071704;28;20203;-70
2020/12/20 06:25:53;;;;;;;103.57;44.40;;;;;;;3.22;100.00;96784.75;5071596;28;20206;-69
2020/12/20 06:28:23;;;;;;;86.63;34.83;;;;;;;3.39;100.00;96790.09;5071555;28;20253;-69
2020/12/20 06:30:50;;;;;;;68.17;30.30;;;;;;;3.34;100.00;96788.16;5071593;28;20306;-69
2020/12/20 06:33:25;;;;;;;66.87;27.93;;;;;;;3.44;100.00;96785.09;5071337;28;20196;-70
2020/12/20 06:35:52;;;;;;;83.40;33.63;;;;;;;3.41;100.00;96788.09;5071940;28;20273;-68
2020/12/20 06:38:22;;;;;;;79.83;36.23;;;;;;;3.45;100.00;96789.22;5071365;28;20202;-69
2020/12/20 06:40:49;;;;;;;108.07;41.60;;;;;;;3.44;100.00;96783.31;5071318;28;20198;-70
2020/12/20 06:43:27;;;;;;;103.93;42.63;;;;;;;3.39;100.00;96785.75;5071099;28;20308;-70
2020/12/20 06:45:53;;;;;;;157.67;64.53;;;;;;;3.52;100.00;96786.59;5071208;28;20207;-70
2020/12/20 06:48:32;;;;;;;136.97;56.20;;;;;;;3.40;100.00;96782.16;5071167;28;20196;-70
2020/12/20 06:51:00;;;;;;;74.47;33.47;;;;;;;3.33;100.00;96791.75;5071102;28;20203;-68
2020/12/20 06:53:52;;;;;;;74.90;34.97;;;;;;;3.32;100.00;96792.75;5071210;28;20195;-70
2020/12/20 06:56:21;;;;;;;78.43;36.63;;;;;;;3.28;100.00;96796.75;5071257;28;20301;-70
2020/12/20 06:58:49;;;;;;;104.63;41.13;;;;;;;3.37;100.00;96795.47;5070911;28;20199;-70
2020/12/20 07:01:34;;;;;;;88.40;40.13;;;;;;;3.39;100.00;96796.00;5071121;28;20223;-70
2020/12/20 07:04:03;;;;;;;64.57;33.37;;;;;;;3.39;100.00;96797.78;5070343;28;20269;-71
2020/12/20 07:06:29;;;;;;;74.70;36.77;;;;;;;3.39;100.00;96795.22;5070944;28;20196;-71
2020/12/20 07:08:58;;;;;;;95.80;44.30;;;;;;;3.49;100.00;96792.94;5070941;28;20226;-71
2020/12/20 07:11:27;;;;;;;99.00;43.50;;;;;;;3.47;100.00;96792.38;5070807;28;20668;-71
2020/12/20 07:13:55;;;;;;;98.20;45.50;;;;;;;3.43;100.00;96792.03;5070676;28;20673;-71
2020/12/20 07:16:24;;;;;;;108.03;48.77;;;;;;;3.49;100.00;96795.50;5070676;28;20723;-70
2020/12/20 07:18:58;;;;;;;83.50;38.63;;;;;;;3.53;100.00;96801.81;5070386;28;20202;-70
2020/12/20 07:21:44;;;;;;;77.07;38.73;;;;;;;3.58;100.00;96803.72;5070762;28;20227;-71
2020/12/20 07:24:16;;;;;;;76.00;38.10;;;;;;;3.62;100.00;96803.06;5070384;28;20211;-70
2020/12/20 07:26:43;;;;;;;70.83;36.33;;;;;;;3.65;100.00;96810.34;5070696;28;20239;-68
2020/12/20 07:29:10;;;;;;;67.87;34.67;;;;;;;3.72;100.00;96800.78;5070322;28;20203;-68
2020/12/20 07:31:37;;;;;;;66.57;36.30;;;;;;;3.74;100.00;96803.09;5070403;28;20319;-68
2020/12/20 07:34:05;;;;;;;66.93;36.13;;;;;;;3.78;100.00;96801.69;5070221;28;20216;-69
2020/12/20 07:36:33;;;;;;;63.90;36.03;;;;;;;3.81;100.00;96808.97;5070060;28;20319;-68
2020/12/20 07:39:01;;;;;;;72.80;37.90;;;;;;;3.90;100.00;96805.06;5070387;28;20200;-69
2020/12/20 07:41:28;;;;;;;80.93;43.13;;;;;;;3.88;100.00;96805.31;5070305;28;20289;-70
2020/12/20 07:43:55;;;;;;;90.63;48.00;;;;;;;3.96;100.00;96806.78;5070278;28;20555;-70
2020/12/20 07:46:23;;;;;;;138.93;75.80;;;;;;;4.01;100.00;96809.47;5070287;28;20244;-71
2020/12/20 07:48:51;;;;;;;215.47;106.37;;;;;;;4.10;100.00;96807.38;5070059;28;20196;-70
2020/12/20 07:51:19;;;;;;;85.53;45.30;;;;;;;4.12;100.00;96807.94;5070145;28;20210;-67
2020/12/20 07:53:47;;;;;;;75.50;37.37;;;;;;;4.06;100.00;96804.47;5070063;28;20206;-70
2020/12/20 07:56:22;;;;;;;94.70;52.37;;;;;;;4.15;100.00;96805.72;5069975;28;20265;-70
2020/12/20 07:58:49;;;;;;;303.17;150.30;;;;;;;4.25;100.00;96808.53;5070012;28;20191;-69
2020/12/20 08:01:16;;;;;;;182.77;79.23;;;;;;;4.24;100.00;96806.97;5070177;28;20227;-70
2020/12/20 08:03:43;;;;;;;94.37;49.43;;;;;;;4.21;100.00;96802.25;5069970;28;20196;-71
2020/12/20 08:06:11;;;;;;;91.50;49.30;;;;;;;4.25;100.00;96803.38;5070274;28;20226;-71
2020/12/20 08:08:38;;;;;;;86.20;43.63;;;;;;;4.29;100.00;96804.50;5069947;28;20192;-71
2020/12/20 08:11:19;;;;;;;91.27;44.40;;;;;;;4.29;100.00;96796.78;5070084;28;20197;-70
2020/12/20 08:13:57;;;;;;;72.40;38.07;;;;;;;4.31;100.00;96805.09;5070068;28;20192;-71
2020/12/20 08:16:25;;;;;;;68.97;35.70;;;;;;;4.30;100.00;96803.50;5069831;28;20239;-71
2020/12/20 08:18:54;;;;;;;72.43;37.47;;;;;;;4.33;100.00;96803.06;5070090;28;20196;-69
2020/12/20 08:21:27;;;;;;;90.83;47.83;;;;;;;4.39;100.00;96796.25;5069761;28;20281;-68
2020/12/20 08:23:58;;;;;;;86.23;42.73;;;;;;;4.54;100.00;96808.69;5069824;28;20261;-71
2020/12/20 08:26:32;;;;;;;74.23;37.83;;;;;;;4.52;100.00;96805.56;5069876;28;20204;-72
2020/12/20 08:29:00;;;;;;;68.53;34.87;;;;;;;4.57;100.00;96813.41;5069882;28;20196;-71
2020/12/20 08:31:29;;;;;;;58.07;28.50;;;;;;;4.63;100.00;96815.09;5070289;28;20196;-71
2020/12/20 08:33:56;;;;;;;48.90;27.20;;;;;;;4.67;100.00;96817.00;5069660;28;20350;-71
2020/12/20 08:36:23;;;;;;;52.67;27.87;;;;;;;4.59;100.00;96822.47;5069468;28;20584;-70
2020/12/20 08:38:50;;;;;;;46.93;26.73;;;;;;;4.68;100.00;96810.81;5070283;28;20196;-69
2020/12/20 08:41:22;;;;;;;48.57;26.87;;;;;;;4.56;100.00;96811.84;5073287;28;20246;-70
2020/12/20 08:43:49;;;;;;;54.70;29.70;;;;;;;4.63;100.00;96810.72;5073833;28;20278;-71
2020/12/20 08:46:30;;;;;;;60.53;33.93;;;;;;;4.70;100.00;96805.47;5073492;28;20189;-71
2020/12/20 08:49:14;;;;;;;60.67;33.20;;;;;;;4.80;100.00;96805.69;5073433;28;20188;-72
2020/12/20 08:51:41;;;;;;;52.00;29.43;;;;;;;4.93;100.00;96797.72;5074196;28;20203;-69
2020/12/20 08:54:11;;;;;;;61.83;34.43;;;;;;;4.96;100.00;96797.28;5073323;28;20299;-70
2020/12/20 08:56:53;;;;;;;41.97;24.00;;;;;;;5.07;100.00;96796.50;5073494;28;20312;-71
2020/12/20 08:59:37;;;;;;;40.63;23.03;;;;;;;5.04;99.45;96794.34;5073285;28;20200;-71
2020/12/20 09:02:06;;;;;;;50.43;24.33;;;;;;;4.93;100.00;96802.88;5072506;28;20279;-71
2020/12/20 09:04:34;;;;;;;44.00;24.37;;;;;;;4.92;100.00;96801.34;5073414;28;20207;-71
2020/12/20 09:07:06;;;;;;;39.03;21.97;;;;;;;4.97;100.00;96800.66;5073416;28;20213;-70
2020/12/20 09:09:34;;;;;;;33.33;18.97;;;;;;;4.93;100.00;96795.16;5073272;28;20228;-71
2020/12/20 09:12:11;;;;;;;30.67;17.97;;;;;;;5.02;100.00;96796.41;5073113;28;20235;-66
2020/12/20 09:14:38;;;;;;;30.83;17.80;;;;;;;4.94;99.98;96799.28;5073042;28;20197;-71
2020/12/20 09:17:06;;;;;;;34.70;21.97;;;;;;;4.83;99.52;96801.91;5073052;28;20311;-71
2020/12/20 09:19:33;;;;;;;36.77;22.73;;;;;;;4.99;100.00;96796.84;5072996;28;20214;-70
2020/12/20 09:22:00;;;;;;;35.57;19.90;;;;;;;5.15;100.00;96801.31;5072848;28;20192;-71
2020/12/20 09:24:29;;;;;;;28.17;15.70;;;;;;;5.07;99.59;96801.66;5072657;28;20279;-70
2020/12/20 09:26:58;;;;;;;26.47;13.97;;;;;;;5.12;99.06;96798.41;5072653;28;20232;-71
2020/12/20 09:29:25;;;;;;;27.70;16.50;;;;;;;5.17;98.01;96790.78;5072652;28;20574;-68
2020/12/20 09:31:53;;;;;;;27.07;16.70;;;;;;;5.36;97.77;96788.81;5072849;28;20276;-71
2020/12/20 09:34:32;;;;;;;25.53;13.63;;;;;;;5.55;97.77;96785.84;5072497;28;20220;-71
2020/12/20 09:37:03;;;;;;;24.37;14.57;;;;;;;5.66;97.35;96781.69;5072695;28;20231;-71
2020/12/20 09:39:30;;;;;;;19.83;12.37;;;;;;;5.62;96.05;96780.56;5072737;28;20283;-71
2020/12/20 09:41:57;;;;;;;22.70;13.17;;;;;;;5.75;94.38;96782.88;5072501;28;20232;-72
2020/12/20 09:44:24;;;;;;;22.47;12.00;;;;;;;5.27;93.49;96780.69;5072552;28;20284;-71
2020/12/20 09:46:52;;;;;;;21.47;13.37;;;;;;;5.27;93.88;96777.31;5072638;28;20213;-72
2020/12/20 09:49:19;;;;;;;20.10;13.27;;;;;;;5.30;93.88;96780.22;5072401;28;20196;-72
2020/12/20 09:51:46;;;;;;;23.87;14.77;;;;;;;5.41;94.40;96778.63;5072410;28;20573;-70
2020/12/20 09:54:13;;;;;;;22.93;14.43;;;;;;;5.44;93.47;96775.56;5072214;28;20206;-71
2020/12/20 09:56:41;;;;;;;22.33;13.23;;;;;;;5.56;92.34;96777.13;5072033;28;20224;-70
2020/12/20 09:59:08;;;;;;;25.70;14.00;;;;;;;5.59;91.71;96779.22;5072211;28;20668;-71
2020/12/20 10:01:35;;;;;;;23.17;12.83;;;;;;;5.47;90.70;96778.50;5072172;28;20200;-72
2020/12/20 10:04:02;;;;;;;20.83;11.47;;;;;;;5.34;91.76;96777.94;5072020;28;20682;-71
2020/12/20 10:06:28;;;;;;;22.40;13.20;;;;;;;5.34;92.44;96780.53;5072108;28;20299;-72
2020/12/20 10:08:56;;;;;;;21.43;12.70;;;;;;;5.34;92.62;96772.78;5071915;28;20278;-71
2020/12/20 10:11:24;;;;;;;25.20;12.73;;;;;;;5.46;91.68;96773.56;5072037;28;20201;-67
2020/12/20 10:13:50;;;;;;;20.17;12.73;;;;;;;5.38;92.14;96773.94;5072130;28;20225;-70
2020/12/20 10:16:18;;;;;;;40.87;25.30;;;;;;;5.38;92.21;96768.78;5071727;28;20703;-71
2020/12/20 10:18:45;;;;;;;28.30;15.97;;;;;;;5.41;92.54;96768.31;5071888;28;20193;-71
2020/12/20 10:21:13;;;;;;;36.43;17.10;;;;;;;5.45;92.86;96769.41;5071624;28;20667;-71
2020/12/20 10:23:40;;;;;;;83.33;31.30;;;;;;;5.50;92.93;96765.13;5071926;28;20262;-70
2020/12/20 10:26:10;;;;;;;86.77;31.47;;;;;;;5.48;92.80;96767.16;5071696;28;20555;-71
2020/12/20 10:28:37;;;;;;;76.47;29.53;;;;;;;5.51;91.80;96763.34;5071725;28;20571;-71
2020/12/20 10:31:04;;;;;;;55.63;27.37;;;;;;;5.50;92.04;96762.56;5071589;28;20192;-71
2020/12/20 10:33:31;;;;;;;36.27;18.00;;;;;;;5.40;90.86;96762.38;5071299;28;20279;-72
2020/12/20 10:35:58;;;;;;;42.10;20.90;;;;;;;5.38;92.01;96755.88;5071300;28;20288;-70
2020/12/20 10:38:25;;;;;;;32.77;16.70;;;;;;;5.43;91.44;96758.56;5071346;28;20282;-72
2020/12/20 10:40:52;;;;;;;98.67;39.80;;;;;;;5.38;92.64;96754.06;5071310;28;20226;-71
2020/12/20 10:43:19;;;;;;;52.30;25.13;;;;;;;5.22;91.95;96754.03;5071183;28;20607;-71
2020/12/20 10:45:46;;;;;;;75.07;35.67;;;;;;;5.27;93.46;96754.91;5071177;28;20207;-71
2020/12/20 10:48:13;;;;;;;39.40;21.33;;;;;;;5.26;92.57;96749.97;5071141;28;20609;-71
2020/12/20 10:50:40;;;;;;;55.70;30.07;;;;;;;5.22;93.65;96746.28;5071054;28;20285;-73
2020/12/20 10:53:06;;;;;;;43.20;24.13;;;;;;;5.13;92.67;96751.78;5071243;28;20246;-70
2020/12/20 10:55:33;;;;;;;65.23;32.53;;;;;;;5.06;93.06;96740.84;5071011;28;20283;-72
2020/12/20 10:58:00;;;;;;;39.87;20.87;;;;;;;5.12;93.31;96744.28;5070810;28;20613;-72
2020/12/20 11:00:28;;;;;;;41.00;19.93;;;;;;;5.06;93.14;96745.19;5070890;28;20214;-72
2020/12/20 11:02:55;;;;;;;40.40;22.07;;;;;;;5.09;92.30;96745.53;5070562;28;20207;-73
2020/12/20 11:05:22;;;;;;;63.00;31.83;;;;;;;5.14;92.78;96735.31;5070761;28;20192;-73
2020/12/20 11:07:48;;;;;;;82.77;39.97;;;;;;;5.10;93.89;96741.16;5070956;28;20200;-72
2020/12/20 11:10:15;;;;;;;74.73;35.73;;;;;;;5.02;94.36;96738.94;5071116;28;20198;-72
2020/12/20 11:12:42;;;;;;;85.50;40.47;;;;;;;4.95;95.56;96741.63;5070573;28;20658;-72
2020/12/20 11:15:09;;;;;;;94.93;43.60;;;;;;;4.95;96.11;96744.19;5070642;28;20271;-72
2020/12/20 11:17:37;;;;;;;222.23;79.77;;;;;;;4.88;98.31;96730.66;5070454;28;20228;-71
2020/12/20 11:20:04;;;;;;;202.80;78.50;;;;;;;4.93;97.27;96735.91;5070505;28;20192;-72
2020/12/20 11:22:30;;;;;;;184.00;68.17;;;;;;;4.97;97.83;96733.69;5070367;28;20280;-72
2020/12/20 11:24:57;;;;;;;253.30;96.13;;;;;;;4.95;98.29;96739.06;5070329;28;20199;-70